sensor_id;sensor_type;location;lat;lon;timestamp;pressure;altitude;pressure_sealevel;temperature;humidity
85752;BME280;76192;39.766;2.716;2024-03-08T00:02:03;100458.63;;;15.02;58.02
85752;BME280;76192;39.766;2.716;2024-03-08T00:04:29;100466.52;;;15.02;58.13
85752;BME280;76192;39.766;2.716;2024-03-08T00:06:54;100479.92;;;15.03;58.50
85752;BME280;76192;39.766;2.716;2024-03-08T00:09:20;100477.88;;;15.04;58.70
85752;BME280;76192;39.766;2.716;2024-03-08T00:11:47;100490.44;;;15.05;58.91
85752;BME280;76192;39.766;2.716;2024-03-08T00:14:16;100484.44;;;15.05;58.95
85752;BME280;76192;39.766;2.716;2024-03-08T00:16:42;100479.80;;;15.06;58.94
85752;BME280;76192;39.766;2.716;2024-03-08T00:19:09;100481.71;;;15.07;58.98
85752;BME280;76192;39.766;2.716;2024-03-08T00:21:35;100482.44;;;15.09;59.05
85752;BME280;76192;39.766;2.716;2024-03-08T00:24:01;100471.64;;;15.10;59.02
85752;BME280;76192;39.766;2.716;2024-03-08T00:26:27;100466.70;;;15.12;59.00
85752;BME280;76192;39.766;2.716;2024-03-08T00:28:54;100467.92;;;15.13;59.14
85752;BME280;76192;39.766;2.716;2024-03-08T00:31:19;100467.95;;;15.14;59.12
85752;BME280;76192;39.766;2.716;2024-03-08T00:33:45;100464.48;;;15.13;59.37
85752;BME280;76192;39.766;2.716;2024-03-08T00:36:11;100479.06;;;15.12;59.54
85752;BME280;76192;39.766;2.716;2024-03-08T00:38:37;100483.17;;;15.12;59.67
85752;BME280;76192;39.766;2.716;2024-03-08T00:41:02;100487.12;;;15.11;59.69
85752;BME280;76192;39.766;2.716;2024-03-08T00:43:28;100490.05;;;15.11;59.68
85752;BME280;76192;39.766;2.716;2024-03-08T00:45:55;100504.65;;;15.12;59.88
85752;BME280;76192;39.766;2.716;2024-03-08T00:48:23;100519.59;;;15.12;59.84
85752;BME280;76192;39.766;2.716;2024-03-08T00:50:48;100519.77;;;15.13;59.91
85752;BME280;76192;39.766;2.716;2024-03-08T00:53:14;100520.44;;;15.12;59.87
85752;BME280;76192;39.766;2.716;2024-03-08T00:55:39;100508.09;;;15.13;59.89
85752;BME280;76192;39.766;2.716;2024-03-08T00:58:05;100503.27;;;15.12;60.08
85752;BME280;76192;39.766;2.716;2024-03-08T01:00:31;100486.44;;;15.12;60.26
85752;BME280;76192;39.766;2.716;2024-03-08T01:02:56;100479.70;;;15.10;60.38
85752;BME280;76192;39.766;2.716;2024-03-08T01:05:22;100472.14;;;15.09;60.65
85752;BME280;76192;39.766;2.716;2024-03-08T01:07:50;100451.88;;;15.10;60.54
85752;BME280;76192;39.766;2.716;2024-03-08T01:10:17;100426.14;;;15.10;60.50
85752;BME280;76192;39.766;2.716;2024-03-08T01:12:42;100440.42;;;15.11;60.64
85752;BME280;76192;39.766;2.716;2024-03-08T01:15:11;100427.77;;;15.14;60.57
85752;BME280;76192;39.766;2.716;2024-03-08T01:17:37;100432.62;;;15.17;60.48
85752;BME280;76192;39.766;2.716;2024-03-08T01:20:04;100427.17;;;15.19;60.36
85752;BME280;76192;39.766;2.716;2024-03-08T01:22:30;100384.44;;;15.21;60.58
85752;BME280;76192;39.766;2.716;2024-03-08T01:24:56;100366.59;;;15.21;60.35
85752;BME280;76192;39.766;2.716;2024-03-08T01:27:23;100378.11;;;15.22;60.22
85752;BME280;76192;39.766;2.716;2024-03-08T01:29:50;100384.65;;;15.23;60.57
85752;BME280;76192;39.766;2.716;2024-03-08T01:32:16;100377.27;;;15.24;60.77
85752;BME280;76192;39.766;2.716;2024-03-08T01:34:41;100384.17;;;15.26;60.84
85752;BME280;76192;39.766;2.716;2024-03-08T01:37:07;100386.97;;;15.28;60.82
85752;BME280;76192;39.766;2.716;2024-03-08T01:39:33;100388.05;;;15.32;60.65
85752;BME280;76192;39.766;2.716;2024-03-08T01:41:59;100386.05;;;15.35;60.54
85752;BME280;76192;39.766;2.716;2024-03-08T01:44:26;100380.92;;;15.37;60.54
85752;BME280;76192;39.766;2.716;2024-03-08T01:46:52;100375.97;;;15.38;60.40
85752;BME280;76192;39.766;2.716;2024-03-08T01:49:19;100366.70;;;15.38;60.48
85752;BME280;76192;39.766;2.716;2024-03-08T01:51:50;100359.83;;;15.38;60.37
85752;BME280;76192;39.766;2.716;2024-03-08T01:54:17;100347.42;;;15.36;60.19
85752;BME280;76192;39.766;2.716;2024-03-08T01:56:44;100338.11;;;15.34;59.81
85752;BME280;76192;39.766;2.716;2024-03-08T01:59:09;100334.98;;;15.32;59.57
85752;BME280;76192;39.766;2.716;2024-03-08T02:01:35;100336.14;;;15.29;59.67
85752;BME280;76192;39.766;2.716;2024-03-08T02:04:01;100337.30;;;15.26;59.71
85752;BME280;76192;39.766;2.716;2024-03-08T02:06:26;100339.82;;;15.23;59.85
85752;BME280;76192;39.766;2.716;2024-03-08T02:08:52;100338.08;;;15.21;59.80
85752;BME280;76192;39.766;2.716;2024-03-08T02:11:18;100327.56;;;15.18;59.67
85752;BME280;76192;39.766;2.716;2024-03-08T02:13:46;100334.40;;;15.17;60.23
85752;BME280;76192;39.766;2.716;2024-03-08T02:16:11;100328.88;;;15.14;60.46
85752;BME280;76192;39.766;2.716;2024-03-08T02:18:37;100331.42;;;15.13;59.50
85752;BME280;76192;39.766;2.716;2024-03-08T02:21:06;100324.53;;;15.12;59.61
85752;BME280;76192;39.766;2.716;2024-03-08T02:23:33;100338.08;;;15.11;60.03
85752;BME280;76192;39.766;2.716;2024-03-08T02:25:59;100342.85;;;15.09;60.19
85752;BME280;76192;39.766;2.716;2024-03-08T02:28:25;100334.23;;;15.06;60.60
85752;BME280;76192;39.766;2.716;2024-03-08T02:30:51;100330.08;;;15.04;60.97
85752;BME280;76192;39.766;2.716;2024-03-08T02:33:20;100324.20;;;15.02;61.57
85752;BME280;76192;39.766;2.716;2024-03-08T02:35:46;100323.30;;;14.99;62.01
85752;BME280;76192;39.766;2.716;2024-03-08T02:38:17;100324.45;;;14.97;62.04
85752;BME280;76192;39.766;2.716;2024-03-08T02:40:48;100323.19;;;14.93;61.92
85752;BME280;76192;39.766;2.716;2024-03-08T02:43:15;100315.05;;;14.90;61.58
85752;BME280;76192;39.766;2.716;2024-03-08T02:45:42;100306.41;;;14.86;61.83
85752;BME280;76192;39.766;2.716;2024-03-08T02:48:08;100302.42;;;14.83;61.67
85752;BME280;76192;39.766;2.716;2024-03-08T02:50:34;100299.11;;;14.80;61.46
85752;BME280;76192;39.766;2.716;2024-03-08T02:53:03;100297.86;;;14.78;61.13
85752;BME280;76192;39.766;2.716;2024-03-08T02:55:29;100293.89;;;14.76;61.15
85752;BME280;76192;39.766;2.716;2024-03-08T02:57:56;100278.27;;;14.75;61.40
85752;BME280;76192;39.766;2.716;2024-03-08T03:00:22;100276.21;;;14.76;61.49
85752;BME280;76192;39.766;2.716;2024-03-08T03:02:49;100273.81;;;14.76;61.56
85752;BME280;76192;39.766;2.716;2024-03-08T03:05:22;100278.95;;;14.75;61.74
85752;BME280;76192;39.766;2.716;2024-03-08T03:07:48;100276.39;;;14.76;61.88
85752;BME280;76192;39.766;2.716;2024-03-08T03:10:16;100271.95;;;14.78;61.81
85752;BME280;76192;39.766;2.716;2024-03-08T03:12:43;100247.49;;;14.83;61.69
85752;BME280;76192;39.766;2.716;2024-03-08T03:15:10;100230.59;;;14.89;61.54
85752;BME280;76192;39.766;2.716;2024-03-08T03:17:37;100226.91;;;14.94;61.31
85752;BME280;76192;39.766;2.716;2024-03-08T03:20:05;100215.20;;;15.02;61.54
85752;BME280;76192;39.766;2.716;2024-03-08T03:22:36;100222.52;;;15.10;61.59
85752;BME280;76192;39.766;2.716;2024-03-08T03:25:03;100243.77;;;15.18;61.14
85752;BME280;76192;39.766;2.716;2024-03-08T03:27:32;100249.73;;;15.27;60.96
85752;BME280;76192;39.766;2.716;2024-03-08T03:29:58;100251.56;;;15.35;61.02
85752;BME280;76192;39.766;2.716;2024-03-08T03:32:23;100250.09;;;15.40;61.32
85752;BME280;76192;39.766;2.716;2024-03-08T03:34:49;100254.23;;;15.43;61.59
85752;BME280;76192;39.766;2.716;2024-03-08T03:37:19;100256.35;;;15.46;61.79
85752;BME280;76192;39.766;2.716;2024-03-08T03:39:45;100264.10;;;15.47;62.52
85752;BME280;76192;39.766;2.716;2024-03-08T03:42:18;100263.23;;;15.46;62.87
85752;BME280;76192;39.766;2.716;2024-03-08T03:44:45;100268.38;;;15.46;63.05
85752;BME280;76192;39.766;2.716;2024-03-08T03:47:11;100276.61;;;15.45;62.89
85752;BME280;76192;39.766;2.716;2024-03-08T03:49:36;100289.48;;;15.44;62.66
85752;BME280;76192;39.766;2.716;2024-03-08T03:52:02;100293.11;;;15.45;62.58
85752;BME280;76192;39.766;2.716;2024-03-08T03:54:30;100295.16;;;15.45;62.57
85752;BME280;76192;39.766;2.716;2024-03-08T03:56:56;100296.54;;;15.45;62.48
85752;BME280;76192;39.766;2.716;2024-03-08T03:59:21;100298.25;;;15.45;62.79
85752;BME280;76192;39.766;2.716;2024-03-08T04:01:47;100296.35;;;15.44;62.88
85752;BME280;76192;39.766;2.716;2024-03-08T04:04:15;100306.64;;;15.43;63.32
85752;BME280;76192;39.766;2.716;2024-03-08T04:06:41;100306.97;;;15.41;63.19
85752;BME280;76192;39.766;2.716;2024-03-08T04:09:07;100309.67;;;15.40;63.32
85752;BME280;76192;39.766;2.716;2024-03-08T04:11:33;100318.95;;;15.38;63.48
85752;BME280;76192;39.766;2.716;2024-03-08T04:13:59;100318.26;;;15.38;63.55
85752;BME280;76192;39.766;2.716;2024-03-08T04:16:24;100329.10;;;15.40;63.91
85752;BME280;76192;39.766;2.716;2024-03-08T04:18:51;100334.98;;;15.41;64.02
85752;BME280;76192;39.766;2.716;2024-03-08T04:21:17;100334.48;;;15.44;64.19
85752;BME280;76192;39.766;2.716;2024-03-08T04:23:45;100333.86;;;15.48;64.06
85752;BME280;76192;39.766;2.716;2024-03-08T04:26:11;100340.48;;;15.54;63.99
85752;BME280;76192;39.766;2.716;2024-03-08T04:28:37;100346.22;;;15.59;64.08
85752;BME280;76192;39.766;2.716;2024-03-08T04:31:05;100343.71;;;15.63;64.12
85752;BME280;76192;39.766;2.716;2024-03-08T04:33:32;100349.08;;;15.66;64.09
85752;BME280;76192;39.766;2.716;2024-03-08T04:35:58;100359.78;;;15.67;64.34
85752;BME280;76192;39.766;2.716;2024-03-08T04:38:23;100367.97;;;15.64;67.80
85752;BME280;76192;39.766;2.716;2024-03-08T04:40:50;100372.70;;;15.61;69.90
85752;BME280;76192;39.766;2.716;2024-03-08T04:43:16;100367.39;;;15.61;65.24
85752;BME280;76192;39.766;2.716;2024-03-08T04:45:44;100364.06;;;15.57;63.93
85752;BME280;76192;39.766;2.716;2024-03-08T04:48:09;100363.63;;;15.52;63.23
85752;BME280;76192;39.766;2.716;2024-03-08T04:50:36;100367.15;;;15.46;62.86
85752;BME280;76192;39.766;2.716;2024-03-08T04:53:03;100371.54;;;15.41;62.40
85752;BME280;76192;39.766;2.716;2024-03-08T04:55:34;100375.41;;;15.36;61.73
85752;BME280;76192;39.766;2.716;2024-03-08T04:57:59;100376.04;;;15.32;61.82
85752;BME280;76192;39.766;2.716;2024-03-08T05:00:25;100371.79;;;15.25;61.59
85752;BME280;76192;39.766;2.716;2024-03-08T05:02:51;100366.89;;;15.19;61.81
85752;BME280;76192;39.766;2.716;2024-03-08T05:05:19;100365.10;;;15.15;61.74
85752;BME280;76192;39.766;2.716;2024-03-08T05:07:44;100362.45;;;15.11;62.13
85752;BME280;76192;39.766;2.716;2024-03-08T05:10:11;100361.02;;;15.07;62.32
85752;BME280;76192;39.766;2.716;2024-03-08T05:12:37;100349.12;;;15.04;62.42
85752;BME280;76192;39.766;2.716;2024-03-08T05:15:05;100334.98;;;15.01;62.79
85752;BME280;76192;39.766;2.716;2024-03-08T05:17:32;100306.80;;;14.99;63.04
85752;BME280;76192;39.766;2.716;2024-03-08T05:19:58;100261.95;;;14.96;63.01
85752;BME280;76192;39.766;2.716;2024-03-08T05:22:23;100253.85;;;14.93;63.41
85752;BME280;76192;39.766;2.716;2024-03-08T05:24:49;100271.80;;;14.90;63.50
85752;BME280;76192;39.766;2.716;2024-03-08T05:27:14;100263.34;;;14.86;63.75
85752;BME280;76192;39.766;2.716;2024-03-08T05:29:40;100284.36;;;14.80;63.83
85752;BME280;76192;39.766;2.716;2024-03-08T05:32:06;100311.23;;;14.76;64.21
85752;BME280;76192;39.766;2.716;2024-03-08T05:34:32;100310.10;;;14.71;63.75
85752;BME280;76192;39.766;2.716;2024-03-08T05:36:58;100305.20;;;14.66;63.85
85752;BME280;76192;39.766;2.716;2024-03-08T05:39:24;100312.67;;;14.61;63.87
85752;BME280;76192;39.766;2.716;2024-03-08T05:41:50;100313.08;;;14.56;63.57
85752;BME280;76192;39.766;2.716;2024-03-08T05:44:16;100306.86;;;14.53;63.41
85752;BME280;76192;39.766;2.716;2024-03-08T05:46:44;100297.92;;;14.52;63.67
85752;BME280;76192;39.766;2.716;2024-03-08T05:49:12;100292.41;;;14.51;63.63
85752;BME280;76192;39.766;2.716;2024-03-08T05:51:39;100305.64;;;14.52;63.36
85752;BME280;76192;39.766;2.716;2024-03-08T05:54:07;100308.59;;;14.53;63.45
85752;BME280;76192;39.766;2.716;2024-03-08T05:56:36;100328.19;;;14.56;63.44
85752;BME280;76192;39.766;2.716;2024-03-08T05:59:02;100336.29;;;14.58;63.04
85752;BME280;76192;39.766;2.716;2024-03-08T06:01:28;100336.34;;;14.61;62.86
85752;BME280;76192;39.766;2.716;2024-03-08T06:03:55;100342.55;;;14.62;62.82
85752;BME280;76192;39.766;2.716;2024-03-08T06:06:23;100342.23;;;14.64;62.88
85752;BME280;76192;39.766;2.716;2024-03-08T06:08:49;100349.30;;;14.65;63.28
85752;BME280;76192;39.766;2.716;2024-03-08T06:11:16;100348.77;;;14.65;63.29
85752;BME280;76192;39.766;2.716;2024-03-08T06:13:43;100340.90;;;14.66;63.21
85752;BME280;76192;39.766;2.716;2024-03-08T06:16:09;100345.37;;;14.66;63.33
85752;BME280;76192;39.766;2.716;2024-03-08T06:18:36;100351.17;;;14.66;63.56
85752;BME280;76192;39.766;2.716;2024-03-08T06:21:05;100362.29;;;14.64;63.79
85752;BME280;76192;39.766;2.716;2024-03-08T06:23:34;100359.34;;;14.62;64.34
85752;BME280;76192;39.766;2.716;2024-03-08T06:26:07;100359.11;;;14.58;64.57
85752;BME280;76192;39.766;2.716;2024-03-08T06:28:33;100374.66;;;14.55;64.80
85752;BME280;76192;39.766;2.716;2024-03-08T06:31:00;100368.94;;;14.52;65.02
85752;BME280;76192;39.766;2.716;2024-03-08T06:33:26;100367.13;;;14.49;65.45
85752;BME280;76192;39.766;2.716;2024-03-08T06:35:55;100365.15;;;14.45;65.68
85752;BME280;76192;39.766;2.716;2024-03-08T06:38:24;100360.63;;;14.41;66.24
85752;BME280;76192;39.766;2.716;2024-03-08T06:40:51;100365.88;;;14.38;66.84
85752;BME280;76192;39.766;2.716;2024-03-08T06:43:17;100369.08;;;14.35;66.71
85752;BME280;76192;39.766;2.716;2024-03-08T06:45:47;100369.86;;;14.31;66.96
85752;BME280;76192;39.766;2.716;2024-03-08T06:48:18;100364.65;;;14.28;67.25
85752;BME280;76192;39.766;2.716;2024-03-08T06:50:45;100365.27;;;14.25;67.57
85752;BME280;76192;39.766;2.716;2024-03-08T06:53:12;100374.02;;;14.25;67.59
85752;BME280;76192;39.766;2.716;2024-03-08T06:55:37;100375.39;;;14.26;67.71
85752;BME280;76192;39.766;2.716;2024-03-08T06:58:04;100372.21;;;14.29;67.80
85752;BME280;76192;39.766;2.716;2024-03-08T07:00:29;100365.25;;;14.32;67.40
85752;BME280;76192;39.766;2.716;2024-03-08T07:02:56;100357.96;;;14.36;67.22
85752;BME280;76192;39.766;2.716;2024-03-08T07:05:27;100354.81;;;14.43;66.93
85752;BME280;76192;39.766;2.716;2024-03-08T07:07:52;100339.50;;;14.48;67.02
85752;BME280;76192;39.766;2.716;2024-03-08T07:10:23;100352.32;;;14.53;66.88
85752;BME280;76192;39.766;2.716;2024-03-08T07:12:53;100380.02;;;14.57;66.72
85752;BME280;76192;39.766;2.716;2024-03-08T07:15:20;100395.30;;;14.58;66.62
85752;BME280;76192;39.766;2.716;2024-03-08T07:17:46;100401.64;;;14.58;66.57
85752;BME280;76192;39.766;2.716;2024-03-08T07:20:13;100403.33;;;14.56;66.90
85752;BME280;76192;39.766;2.716;2024-03-08T07:22:41;100405.14;;;14.53;67.31
85752;BME280;76192;39.766;2.716;2024-03-08T07:25:07;100411.05;;;14.50;67.45
85752;BME280;76192;39.766;2.716;2024-03-08T07:27:33;100413.64;;;14.50;67.41
85752;BME280;76192;39.766;2.716;2024-03-08T07:30:03;100423.30;;;14.52;67.41
85752;BME280;76192;39.766;2.716;2024-03-08T07:32:29;100432.13;;;14.55;67.24
85752;BME280;76192;39.766;2.716;2024-03-08T07:34:56;100438.54;;;14.59;67.30
85752;BME280;76192;39.766;2.716;2024-03-08T07:37:21;100427.27;;;14.61;67.18
85752;BME280;76192;39.766;2.716;2024-03-08T07:39:47;100426.29;;;14.64;64.87
85752;BME280;76192;39.766;2.716;2024-03-08T07:42:13;100436.16;;;14.59;60.98
85752;BME280;76192;39.766;2.716;2024-03-08T07:44:38;100453.41;;;14.49;60.38
85752;BME280;76192;39.766;2.716;2024-03-08T07:47:05;100474.52;;;14.33;58.58
85752;BME280;76192;39.766;2.716;2024-03-08T07:49:37;100464.11;;;14.14;58.39
85752;BME280;76192;39.766;2.716;2024-03-08T07:52:06;100460.81;;;13.97;60.29
85752;BME280;76192;39.766;2.716;2024-03-08T07:54:33;100462.54;;;13.83;59.67
85752;BME280;76192;39.766;2.716;2024-03-08T07:57:00;100466.44;;;13.74;60.51
85752;BME280;76192;39.766;2.716;2024-03-08T07:59:28;100465.59;;;13.67;61.20
85752;BME280;76192;39.766;2.716;2024-03-08T08:01:54;100454.33;;;13.62;59.35
85752;BME280;76192;39.766;2.716;2024-03-08T08:04:20;100459.73;;;13.58;58.20
85752;BME280;76192;39.766;2.716;2024-03-08T08:06:50;100458.73;;;13.60;58.78
85752;BME280;76192;39.766;2.716;2024-03-08T08:09:16;100441.54;;;13.65;58.78
85752;BME280;76192;39.766;2.716;2024-03-08T08:11:57;100443.39;;;13.70;59.45
85752;BME280;76192;39.766;2.716;2024-03-08T08:14:22;100460.66;;;13.75;59.90
85752;BME280;76192;39.766;2.716;2024-03-08T08:16:48;100464.95;;;13.82;60.27
85752;BME280;76192;39.766;2.716;2024-03-08T08:19:15;100472.11;;;13.88;59.04
85752;BME280;76192;39.766;2.716;2024-03-08T08:21:41;100462.50;;;13.95;58.57
85752;BME280;76192;39.766;2.716;2024-03-08T08:24:07;100464.90;;;14.03;59.37
85752;BME280;76192;39.766;2.716;2024-03-08T08:26:32;100458.07;;;14.11;59.86
85752;BME280;76192;39.766;2.716;2024-03-08T08:28:59;100462.00;;;14.18;59.68
85752;BME280;76192;39.766;2.716;2024-03-08T08:31:25;100465.05;;;14.25;59.81
85752;BME280;76192;39.766;2.716;2024-03-08T08:33:51;100470.38;;;14.32;59.63
85752;BME280;76192;39.766;2.716;2024-03-08T08:36:24;100471.57;;;14.40;59.25
85752;BME280;76192;39.766;2.716;2024-03-08T08:38:50;100458.03;;;14.48;58.57
85752;BME280;76192;39.766;2.716;2024-03-08T08:41:15;100464.56;;;14.56;57.13
85752;BME280;76192;39.766;2.716;2024-03-08T08:43:43;100468.29;;;14.62;56.51
85752;BME280;76192;39.766;2.716;2024-03-08T08:46:11;100472.36;;;14.68;57.44
85752;BME280;76192;39.766;2.716;2024-03-08T08:48:39;100464.60;;;14.74;56.57
85752;BME280;76192;39.766;2.716;2024-03-08T08:51:11;100460.52;;;14.76;56.18
85752;BME280;76192;39.766;2.716;2024-03-08T08:53:41;100477.65;;;14.75;57.09
85752;BME280;76192;39.766;2.716;2024-03-08T08:56:15;100465.70;;;14.70;56.32
85752;BME280;76192;39.766;2.716;2024-03-08T08:58:44;100470.33;;;14.61;56.26
85752;BME280;76192;39.766;2.716;2024-03-08T09:01:10;100469.57;;;14.50;56.27
85752;BME280;76192;39.766;2.716;2024-03-08T09:03:37;100469.01;;;14.41;55.90
85752;BME280;76192;39.766;2.716;2024-03-08T09:06:06;100472.63;;;14.33;55.20
85752;BME280;76192;39.766;2.716;2024-03-08T09:08:39;100481.14;;;14.24;54.90
85752;BME280;76192;39.766;2.716;2024-03-08T09:11:04;100477.20;;;14.16;54.23
85752;BME280;76192;39.766;2.716;2024-03-08T09:13:31;100482.35;;;14.09;53.85
85752;BME280;76192;39.766;2.716;2024-03-08T09:15:56;100476.45;;;14.06;55.04
85752;BME280;76192;39.766;2.716;2024-03-08T09:18:22;100474.48;;;14.02;56.26
85752;BME280;76192;39.766;2.716;2024-03-08T09:20:49;100474.41;;;14.00;56.90
85752;BME280;76192;39.766;2.716;2024-03-08T09:23:19;100479.52;;;13.98;57.74
85752;BME280;76192;39.766;2.716;2024-03-08T09:25:45;100469.34;;;13.95;58.51
85752;BME280;76192;39.766;2.716;2024-03-08T09:28:12;100470.33;;;13.93;58.60
85752;BME280;76192;39.766;2.716;2024-03-08T09:30:38;100463.27;;;13.91;58.30
85752;BME280;76192;39.766;2.716;2024-03-08T09:33:05;100462.59;;;13.91;58.17
85752;BME280;76192;39.766;2.716;2024-03-08T09:35:32;100472.02;;;13.92;57.93
85752;BME280;76192;39.766;2.716;2024-03-08T09:37:57;100477.23;;;13.95;57.01
85752;BME280;76192;39.766;2.716;2024-03-08T09:40:23;100480.89;;;13.98;56.45
85752;BME280;76192;39.766;2.716;2024-03-08T09:42:51;100478.36;;;14.00;55.44
85752;BME280;76192;39.766;2.716;2024-03-08T09:45:20;100478.06;;;14.02;55.16
85752;BME280;76192;39.766;2.716;2024-03-08T09:47:47;100476.27;;;14.05;55.02
85752;BME280;76192;39.766;2.716;2024-03-08T09:50:16;100479.44;;;14.08;54.85
85752;BME280;76192;39.766;2.716;2024-03-08T09:52:47;100475.75;;;14.12;54.15
85752;BME280;76192;39.766;2.716;2024-03-08T09:55:13;100481.84;;;14.16;52.27
85752;BME280;76192;39.766;2.716;2024-03-08T09:57:42;100488.79;;;14.20;51.57
85752;BME280;76192;39.766;2.716;2024-03-08T10:00:28;100490.08;;;14.24;51.77
85752;BME280;76192;39.766;2.716;2024-03-08T10:02:54;100488.13;;;14.29;51.62
85752;BME280;76192;39.766;2.716;2024-03-08T10:05:19;100490.45;;;14.33;51.93
85752;BME280;76192;39.766;2.716;2024-03-08T10:07:47;100488.49;;;14.38;51.51
85752;BME280;76192;39.766;2.716;2024-03-08T10:10:12;100485.34;;;14.43;50.28
85752;BME280;76192;39.766;2.716;2024-03-08T10:12:38;100479.30;;;14.49;50.60
85752;BME280;76192;39.766;2.716;2024-03-08T10:15:08;100483.73;;;14.54;50.23
85752;BME280;76192;39.766;2.716;2024-03-08T10:17:35;100477.81;;;14.58;50.27
85752;BME280;76192;39.766;2.716;2024-03-08T10:20:00;100481.02;;;14.64;49.28
85752;BME280;76192;39.766;2.716;2024-03-08T10:22:26;100484.09;;;14.71;47.87
85752;BME280;76192;39.766;2.716;2024-03-08T10:24:52;100501.92;;;14.79;46.99
85752;BME280;76192;39.766;2.716;2024-03-08T10:27:18;100481.15;;;14.87;45.73
85752;BME280;76192;39.766;2.716;2024-03-08T10:29:48;100487.45;;;14.93;45.34
85752;BME280;76192;39.766;2.716;2024-03-08T10:32:16;100480.37;;;14.99;45.36
85752;BME280;76192;39.766;2.716;2024-03-08T10:34:43;100474.48;;;15.06;45.71
85752;BME280;76192;39.766;2.716;2024-03-08T10:37:14;100475.14;;;15.14;45.56
85752;BME280;76192;39.766;2.716;2024-03-08T10:39:48;100480.82;;;15.23;44.79
85752;BME280;76192;39.766;2.716;2024-03-08T10:42:22;100481.66;;;15.32;44.07
85752;BME280;76192;39.766;2.716;2024-03-08T10:45:10;100471.83;;;15.39;43.91
85752;BME280;76192;39.766;2.716;2024-03-08T10:47:41;100475.58;;;15.47;43.93
85752;BME280;76192;39.766;2.716;2024-03-08T10:50:20;100482.95;;;15.56;42.90
85752;BME280;76192;39.766;2.716;2024-03-08T10:52:51;100475.51;;;15.63;42.08
85752;BME280;76192;39.766;2.716;2024-03-08T10:55:20;100477.18;;;15.69;41.54
85752;BME280;76192;39.766;2.716;2024-03-08T10:57:46;100469.75;;;15.76;41.72
85752;BME280;76192;39.766;2.716;2024-03-08T11:00:16;100469.34;;;15.84;42.19
85752;BME280;76192;39.766;2.716;2024-03-08T11:02:44;100464.64;;;15.91;41.92
85752;BME280;76192;39.766;2.716;2024-03-08T11:05:11;100460.60;;;15.96;41.61
85752;BME280;76192;39.766;2.716;2024-03-08T11:07:43;100458.30;;;16.04;41.26
85752;BME280;76192;39.766;2.716;2024-03-08T11:10:19;100454.11;;;16.11;40.27
85752;BME280;76192;39.766;2.716;2024-03-08T11:12:45;100460.59;;;16.18;40.05
85752;BME280;76192;39.766;2.716;2024-03-08T11:15:13;100450.19;;;16.25;40.08
85752;BME280;76192;39.766;2.716;2024-03-08T11:22:52;100458.55;;;16.46;40.35
85752;BME280;76192;39.766;2.716;2024-03-08T11:25:36;100462.56;;;16.50;40.69
85752;BME280;76192;39.766;2.716;2024-03-08T11:28:17;100452.95;;;16.51;41.01
85752;BME280;76192;39.766;2.716;2024-03-08T11:33:30;100462.01;;;16.48;40.93
85752;BME280;76192;39.766;2.716;2024-03-08T11:36:10;100470.08;;;16.46;40.89
85752;BME280;76192;39.766;2.716;2024-03-08T11:38:46;100463.19;;;16.46;40.14
85752;BME280;76192;39.766;2.716;2024-03-08T11:41:18;100494.18;;;16.47;40.19
85752;BME280;76192;39.766;2.716;2024-03-08T11:43:48;100496.08;;;16.49;40.58
85752;BME280;76192;39.766;2.716;2024-03-08T11:46:15;100492.29;;;16.48;40.77
85752;BME280;76192;39.766;2.716;2024-03-08T11:48:43;100491.98;;;16.50;40.75
85752;BME280;76192;39.766;2.716;2024-03-08T11:51:11;100485.11;;;16.51;40.76
85752;BME280;76192;39.766;2.716;2024-03-08T11:53:40;100485.66;;;16.53;41.15
85752;BME280;76192;39.766;2.716;2024-03-08T11:56:13;100486.55;;;16.55;40.74
85752;BME280;76192;39.766;2.716;2024-03-08T11:58:40;100485.20;;;16.57;39.99
85752;BME280;76192;39.766;2.716;2024-03-08T12:01:10;100491.92;;;16.58;39.66
85752;BME280;76192;39.766;2.716;2024-03-08T12:03:39;100494.50;;;16.59;38.89
85752;BME280;76192;39.766;2.716;2024-03-08T12:06:08;100505.54;;;16.60;38.53
85752;BME280;76192;39.766;2.716;2024-03-08T12:08:35;100510.19;;;16.60;38.13
85752;BME280;76192;39.766;2.716;2024-03-08T12:11:01;100484.38;;;16.60;38.26
85752;BME280;76192;39.766;2.716;2024-03-08T12:13:33;100498.20;;;16.65;38.59
85752;BME280;76192;39.766;2.716;2024-03-08T12:16:00;100501.34;;;16.68;37.66
85752;BME280;76192;39.766;2.716;2024-03-08T12:18:29;100488.95;;;16.69;37.87
85752;BME280;76192;39.766;2.716;2024-03-08T12:21:08;100479.17;;;16.71;37.19
85752;BME280;76192;39.766;2.716;2024-03-08T12:23:36;100460.59;;;16.72;37.10
85752;BME280;76192;39.766;2.716;2024-03-08T12:26:18;100467.32;;;16.74;37.05
85752;BME280;76192;39.766;2.716;2024-03-08T12:28:45;100469.49;;;16.78;37.29
85752;BME280;76192;39.766;2.716;2024-03-08T12:31:15;100457.13;;;16.81;37.28
85752;BME280;76192;39.766;2.716;2024-03-08T12:33:52;100436.84;;;16.84;37.47
85752;BME280;76192;39.766;2.716;2024-03-08T12:36:18;100434.98;;;16.87;37.32
85752;BME280;76192;39.766;2.716;2024-03-08T12:38:48;100432.13;;;16.93;37.34
85752;BME280;76192;39.766;2.716;2024-03-08T12:41:18;100445.44;;;16.98;36.96
85752;BME280;76192;39.766;2.716;2024-03-08T12:43:48;100431.18;;;17.03;36.95
85752;BME280;76192;39.766;2.716;2024-03-08T12:46:17;100422.28;;;17.07;36.86
85752;BME280;76192;39.766;2.716;2024-03-08T12:48:43;100423.37;;;17.13;36.60
85752;BME280;76192;39.766;2.716;2024-03-08T12:51:16;100408.06;;;17.18;36.72
85752;BME280;76192;39.766;2.716;2024-03-08T12:53:44;100416.56;;;17.22;36.76
85752;BME280;76192;39.766;2.716;2024-03-08T12:56:14;100411.79;;;17.27;36.65
85752;BME280;76192;39.766;2.716;2024-03-08T12:58:42;100409.80;;;17.37;36.73
85752;BME280;76192;39.766;2.716;2024-03-08T13:01:08;100411.09;;;17.46;36.61